sensor_id;sensor_type;location;lat;lon;timestamp;P1;durP1;ratioP1;P2;durP2;ratioP2
61003;SDS011;46889;37.310;13.582;2024-03-17T00:00:37;11.18;;;4.45;;
61003;SDS011;46889;37.310;13.582;2024-03-17T00:03:05;10.43;;;4.93;;
61003;SDS011;46889;37.310;13.582;2024-03-17T00:05:34;12.43;;;4.90;;
61003;SDS011;46889;37.310;13.582;2024-03-17T00:08:01;12.25;;;4.40;;
61003;SDS011;46889;37.310;13.582;2024-03-17T00:10:32;11.00;;;3.88;;
61003;SDS011;46889;37.310;13.582;2024-03-17T00:12:59;14.70;;;3.83;;
61003;SDS011;46889;37.310;13.582;2024-03-17T00:15:26;11.18;;;3.85;;
61003;SDS011;46889;37.310;13.582;2024-03-17T00:17:53;17.73;;;4.13;;
61003;SDS011;46889;37.310;13.582;2024-03-17T00:20:19;11.20;;;4.00;;
61003;SDS011;46889;37.310;13.582;2024-03-17T00:22:49;11.63;;;3.80;;
61003;SDS011;46889;37.310;13.582;2024-03-17T00:25:18;10.27;;;3.60;;
61003;SDS011;46889;37.310;13.582;2024-03-17T00:27:44;14.07;;;4.70;;
61003;SDS011;46889;37.310;13.582;2024-03-17T00:30:13;18.40;;;4.30;;
61003;SDS011;46889;37.310;13.582;2024-03-17T00:32:41;12.68;;;5.13;;
61003;SDS011;46889;37.310;13.582;2024-03-17T00:35:08;12.18;;;5.82;;
61003;SDS011;46889;37.310;13.582;2024-03-17T00:37:40;14.55;;;6.50;;
61003;SDS011;46889;37.310;13.582;2024-03-17T00:40:11;13.77;;;5.78;;
61003;SDS011;46889;37.310;13.582;2024-03-17T00:42:42;16.05;;;5.90;;
61003;SDS011;46889;37.310;13.582;2024-03-17T00:45:10;12.00;;;5.13;;
61003;SDS011;46889;37.310;13.582;2024-03-17T00:47:37;13.82;;;4.85;;
61003;SDS011;46889;37.310;13.582;2024-03-17T00:50:06;8.57;;;4.82;;
61003;SDS011;46889;37.310;13.582;2024-03-17T00:52:37;13.90;;;4.65;;
61003;SDS011;46889;37.310;13.582;2024-03-17T00:55:04;16.70;;;5.60;;
61003;SDS011;46889;37.310;13.582;2024-03-17T00:57:30;11.18;;;5.50;;
61003;SDS011;46889;37.310;13.582;2024-03-17T00:59:58;10.80;;;5.97;;
61003;SDS011;46889;37.310;13.582;2024-03-17T01:02:27;12.30;;;6.35;;
61003;SDS011;46889;37.310;13.582;2024-03-17T01:04:57;13.60;;;6.72;;
61003;SDS011;46889;37.310;13.582;2024-03-17T01:07:24;9.68;;;5.35;;
61003;SDS011;46889;37.310;13.582;2024-03-17T01:09:51;13.60;;;6.20;;
61003;SDS011;46889;37.310;13.582;2024-03-17T01:12:20;10.82;;;5.40;;
61003;SDS011;46889;37.310;13.582;2024-03-17T01:14:47;10.77;;;6.63;;
61003;SDS011;46889;37.310;13.582;2024-03-17T01:17:13;13.07;;;6.60;;
61003;SDS011;46889;37.310;13.582;2024-03-17T01:19:41;12.55;;;6.30;;
61003;SDS011;46889;37.310;13.582;2024-03-17T01:22:07;11.93;;;5.87;;
61003;SDS011;46889;37.310;13.582;2024-03-17T01:27:04;9.75;;;4.95;;
61003;SDS011;46889;37.310;13.582;2024-03-17T01:31:57;20.95;;;5.55;;
61003;SDS011;46889;37.310;13.582;2024-03-17T01:34:25;12.55;;;5.35;;
61003;SDS011;46889;37.310;13.582;2024-03-17T01:36:51;9.10;;;4.23;;
61003;SDS011;46889;37.310;13.582;2024-03-17T01:39:17;13.48;;;5.85;;
61003;SDS011;46889;37.310;13.582;2024-03-17T01:41:43;10.20;;;5.25;;
61003;SDS011;46889;37.310;13.582;2024-03-17T01:44:27;12.35;;;4.93;;
61003;SDS011;46889;37.310;13.582;2024-03-17T01:46:54;11.88;;;4.60;;
61003;SDS011;46889;37.310;13.582;2024-03-17T01:49:21;10.27;;;4.50;;
61003;SDS011;46889;37.310;13.582;2024-03-17T01:51:50;10.95;;;4.88;;
61003;SDS011;46889;37.310;13.582;2024-03-17T01:54:21;15.75;;;5.47;;
61003;SDS011;46889;37.310;13.582;2024-03-17T01:56:52;7.70;;;4.45;;
61003;SDS011;46889;37.310;13.582;2024-03-17T01:59:18;14.37;;;5.77;;
61003;SDS011;46889;37.310;13.582;2024-03-17T02:01:44;9.48;;;6.03;;
61003;SDS011;46889;37.310;13.582;2024-03-17T02:04:11;9.35;;;5.00;;
61003;SDS011;46889;37.310;13.582;2024-03-17T02:06:37;11.88;;;5.03;;
61003;SDS011;46889;37.310;13.582;2024-03-17T02:09:04;9.75;;;4.13;;
61003;SDS011;46889;37.310;13.582;2024-03-17T02:11:31;13.13;;;4.53;;
61003;SDS011;46889;37.310;13.582;2024-03-17T02:13:59;12.23;;;4.40;;
61003;SDS011;46889;37.310;13.582;2024-03-17T02:16:31;11.18;;;4.43;;
61003;SDS011;46889;37.310;13.582;2024-03-17T02:18:57;11.73;;;4.20;;
61003;SDS011;46889;37.310;13.582;2024-03-17T02:23:52;9.43;;;4.05;;
61003;SDS011;46889;37.310;13.582;2024-03-17T02:26:19;11.18;;;4.00;;
61003;SDS011;46889;37.310;13.582;2024-03-17T02:28:48;9.60;;;4.20;;
61003;SDS011;46889;37.310;13.582;2024-03-17T02:31:15;9.07;;;3.73;;
61003;SDS011;46889;37.310;13.582;2024-03-17T02:33:42;11.30;;;3.95;;
61003;SDS011;46889;37.310;13.582;2024-03-17T02:36:09;10.55;;;4.00;;
61003;SDS011;46889;37.310;13.582;2024-03-17T02:38:37;12.05;;;3.78;;
61003;SDS011;46889;37.310;13.582;2024-03-17T02:41:25;7.72;;;3.20;;
61003;SDS011;46889;37.310;13.582;2024-03-17T02:43:52;6.93;;;3.60;;
61003;SDS011;46889;37.310;13.582;2024-03-17T02:46:18;11.55;;;3.58;;
61003;SDS011;46889;37.310;13.582;2024-03-17T02:48:46;7.30;;;3.22;;
61003;SDS011;46889;37.310;13.582;2024-03-17T02:51:15;6.25;;;2.60;;
61003;SDS011;46889;37.310;13.582;2024-03-17T02:53:43;5.68;;;2.40;;
61003;SDS011;46889;37.310;13.582;2024-03-17T02:56:10;7.22;;;2.83;;
61003;SDS011;46889;37.310;13.582;2024-03-17T02:58:37;6.88;;;2.78;;
61003;SDS011;46889;37.310;13.582;2024-03-17T03:01:06;10.50;;;2.40;;
61003;SDS011;46889;37.310;13.582;2024-03-17T03:03:35;5.57;;;2.60;;
61003;SDS011;46889;37.310;13.582;2024-03-17T03:06:03;5.97;;;2.60;;
61003;SDS011;46889;37.310;13.582;2024-03-17T03:08:40;5.30;;;2.42;;
61003;SDS011;46889;37.310;13.582;2024-03-17T03:11:07;6.35;;;2.92;;
61003;SDS011;46889;37.310;13.582;2024-03-17T03:13:40;11.60;;;3.25;;
61003;SDS011;46889;37.310;13.582;2024-03-17T03:16:08;9.05;;;3.10;;
61003;SDS011;46889;37.310;13.582;2024-03-17T03:18:36;5.95;;;2.75;;
61003;SDS011;46889;37.310;13.582;2024-03-17T03:21:04;8.02;;;2.92;;
61003;SDS011;46889;37.310;13.582;2024-03-17T03:23:30;14.63;;;3.22;;
61003;SDS011;46889;37.310;13.582;2024-03-17T03:26:01;9.40;;;3.28;;
61003;SDS011;46889;37.310;13.582;2024-03-17T03:28:28;5.32;;;2.53;;
61003;SDS011;46889;37.310;13.582;2024-03-17T03:30:56;8.82;;;2.60;;
61003;SDS011;46889;37.310;13.582;2024-03-17T03:33:23;5.57;;;2.38;;
61003;SDS011;46889;37.310;13.582;2024-03-17T03:35:49;7.32;;;2.40;;
61003;SDS011;46889;37.310;13.582;2024-03-17T03:38:15;6.10;;;3.10;;
61003;SDS011;46889;37.310;13.582;2024-03-17T03:40:42;5.80;;;2.58;;
61003;SDS011;46889;37.310;13.582;2024-03-17T03:43:09;10.68;;;2.97;;
61003;SDS011;46889;37.310;13.582;2024-03-17T03:45:39;6.20;;;2.22;;
61003;SDS011;46889;37.310;13.582;2024-03-17T03:48:05;5.40;;;2.40;;
61003;SDS011;46889;37.310;13.582;2024-03-17T03:50:34;7.07;;;2.38;;
61003;SDS011;46889;37.310;13.582;2024-03-17T03:53:00;7.15;;;2.65;;
61003;SDS011;46889;37.310;13.582;2024-03-17T03:55:28;6.32;;;2.60;;
61003;SDS011;46889;37.310;13.582;2024-03-17T03:57:54;8.32;;;2.67;;
61003;SDS011;46889;37.310;13.582;2024-03-17T04:00:20;6.83;;;2.73;;
61003;SDS011;46889;37.310;13.582;2024-03-17T04:02:48;7.13;;;2.65;;
61003;SDS011;46889;37.310;13.582;2024-03-17T04:05:18;8.23;;;2.60;;
61003;SDS011;46889;37.310;13.582;2024-03-17T04:07:45;6.95;;;2.70;;
61003;SDS011;46889;37.310;13.582;2024-03-17T04:10:13;6.93;;;2.50;;
61003;SDS011;46889;37.310;13.582;2024-03-17T04:12:40;4.63;;;2.30;;
61003;SDS011;46889;37.310;13.582;2024-03-17T04:15:07;7.05;;;2.50;;
61003;SDS011;46889;37.310;13.582;2024-03-17T04:17:38;5.20;;;2.25;;
61003;SDS011;46889;37.310;13.582;2024-03-17T04:20:04;9.25;;;2.70;;
61003;SDS011;46889;37.310;13.582;2024-03-17T04:22:34;7.53;;;2.50;;
61003;SDS011;46889;37.310;13.582;2024-03-17T04:25:00;9.40;;;2.40;;
61003;SDS011;46889;37.310;13.582;2024-03-17T04:27:29;7.22;;;2.55;;
61003;SDS011;46889;37.310;13.582;2024-03-17T04:29:56;8.32;;;2.67;;
61003;SDS011;46889;37.310;13.582;2024-03-17T04:32:25;7.35;;;2.58;;
61003;SDS011;46889;37.310;13.582;2024-03-17T04:34:54;5.65;;;2.30;;
61003;SDS011;46889;37.310;13.582;2024-03-17T04:37:21;7.65;;;2.67;;
61003;SDS011;46889;37.310;13.582;2024-03-17T04:39:48;6.60;;;2.50;;
61003;SDS011;46889;37.310;13.582;2024-03-17T04:42:15;7.60;;;2.60;;
61003;SDS011;46889;37.310;13.582;2024-03-17T04:44:46;7.60;;;2.60;;
61003;SDS011;46889;37.310;13.582;2024-03-17T04:47:13;6.40;;;2.50;;
61003;SDS011;46889;37.310;13.582;2024-03-17T04:52:07;8.65;;;2.50;;
61003;SDS011;46889;37.310;13.582;2024-03-17T04:54:34;5.82;;;2.30;;
61003;SDS011;46889;37.310;13.582;2024-03-17T04:57:01;4.28;;;2.30;;
61003;SDS011;46889;37.310;13.582;2024-03-17T04:59:27;8.30;;;2.78;;
61003;SDS011;46889;37.310;13.582;2024-03-17T05:01:54;7.18;;;2.75;;
61003;SDS011;46889;37.310;13.582;2024-03-17T05:06:48;8.25;;;2.72;;
61003;SDS011;46889;37.310;13.582;2024-03-17T05:09:17;5.80;;;2.47;;
61003;SDS011;46889;37.310;13.582;2024-03-17T05:11:44;7.97;;;3.03;;
61003;SDS011;46889;37.310;13.582;2024-03-17T05:14:10;7.38;;;2.30;;
61003;SDS011;46889;37.310;13.582;2024-03-17T05:16:37;7.65;;;2.63;;
61003;SDS011;46889;37.310;13.582;2024-03-17T05:19:03;10.57;;;2.65;;
61003;SDS011;46889;37.310;13.582;2024-03-17T05:21:30;6.45;;;2.90;;
61003;SDS011;46889;37.310;13.582;2024-03-17T05:23:57;7.82;;;2.60;;
61003;SDS011;46889;37.310;13.582;2024-03-17T05:26:28;8.32;;;2.42;;
61003;SDS011;46889;37.310;13.582;2024-03-17T05:28:56;8.23;;;2.75;;
61003;SDS011;46889;37.310;13.582;2024-03-17T05:31:23;8.57;;;2.88;;
61003;SDS011;46889;37.310;13.582;2024-03-17T05:33:49;8.00;;;2.47;;
61003;SDS011;46889;37.310;13.582;2024-03-17T05:36:17;5.75;;;2.40;;
61003;SDS011;46889;37.310;13.582;2024-03-17T05:38:45;9.88;;;2.60;;
61003;SDS011;46889;37.310;13.582;2024-03-17T05:41:11;8.60;;;2.63;;
61003;SDS011;46889;37.310;13.582;2024-03-17T05:43:38;7.43;;;2.45;;
61003;SDS011;46889;37.310;13.582;2024-03-17T05:46:05;8.52;;;2.88;;
61003;SDS011;46889;37.310;13.582;2024-03-17T05:48:36;8.40;;;2.30;;
61003;SDS011;46889;37.310;13.582;2024-03-17T05:51:09;6.38;;;2.42;;
61003;SDS011;46889;37.310;13.582;2024-03-17T05:53:38;7.15;;;2.42;;
61003;SDS011;46889;37.310;13.582;2024-03-17T05:56:13;9.52;;;2.50;;
61003;SDS011;46889;37.310;13.582;2024-03-17T05:59:00;9.93;;;2.47;;
61003;SDS011;46889;37.310;13.582;2024-03-17T06:01:46;7.80;;;2.10;;
61003;SDS011;46889;37.310;13.582;2024-03-17T06:04:15;6.97;;;2.28;;
61003;SDS011;46889;37.310;13.582;2024-03-17T06:06:42;7.82;;;1.73;;
61003;SDS011;46889;37.310;13.582;2024-03-17T06:09:08;7.60;;;1.90;;
61003;SDS011;46889;37.310;13.582;2024-03-17T06:11:36;11.85;;;1.90;;
61003;SDS011;46889;37.310;13.582;2024-03-17T06:14:02;7.35;;;2.10;;
61003;SDS011;46889;37.310;13.582;2024-03-17T06:16:31;6.55;;;1.90;;
61003;SDS011;46889;37.310;13.582;2024-03-17T06:18:57;5.47;;;2.00;;
61003;SDS011;46889;37.310;13.582;2024-03-17T06:21:23;5.80;;;2.03;;
61003;SDS011;46889;37.310;13.582;2024-03-17T06:23:51;6.53;;;1.90;;
61003;SDS011;46889;37.310;13.582;2024-03-17T06:26:19;8.77;;;1.92;;
61003;SDS011;46889;37.310;13.582;2024-03-17T06:28:46;7.95;;;1.92;;
61003;SDS011;46889;37.310;13.582;2024-03-17T06:31:13;5.60;;;1.88;;
61003;SDS011;46889;37.310;13.582;2024-03-17T06:33:39;4.95;;;1.85;;
61003;SDS011;46889;37.310;13.582;2024-03-17T06:36:05;4.25;;;1.80;;
61003;SDS011;46889;37.310;13.582;2024-03-17T06:38:48;6.25;;;1.95;;
61003;SDS011;46889;37.310;13.582;2024-03-17T06:41:16;5.82;;;2.00;;
61003;SDS011;46889;37.310;13.582;2024-03-17T06:43:42;5.78;;;1.75;;
61003;SDS011;46889;37.310;13.582;2024-03-17T06:46:09;6.20;;;1.65;;
61003;SDS011;46889;37.310;13.582;2024-03-17T06:51:02;4.35;;;2.03;;
61003;SDS011;46889;37.310;13.582;2024-03-17T06:53:28;7.72;;;1.85;;
61003;SDS011;46889;37.310;13.582;2024-03-17T06:55:55;7.05;;;1.73;;
61003;SDS011;46889;37.310;13.582;2024-03-17T06:58:23;6.22;;;2.15;;
61003;SDS011;46889;37.310;13.582;2024-03-17T07:00:57;5.25;;;1.88;;
61003;SDS011;46889;37.310;13.582;2024-03-17T07:03:25;6.03;;;1.88;;
61003;SDS011;46889;37.310;13.582;2024-03-17T07:05:59;5.53;;;1.80;;
61003;SDS011;46889;37.310;13.582;2024-03-17T07:08:30;5.47;;;1.77;;
61003;SDS011;46889;37.310;13.582;2024-03-17T07:11:03;4.43;;;1.60;;
61003;SDS011;46889;37.310;13.582;2024-03-17T07:13:31;6.47;;;2.10;;
61003;SDS011;46889;37.310;13.582;2024-03-17T07:15:59;12.32;;;5.97;;
61003;SDS011;46889;37.310;13.582;2024-03-17T07:18:27;5.72;;;1.83;;
61003;SDS011;46889;37.310;13.582;2024-03-17T07:21:03;6.85;;;1.80;;
61003;SDS011;46889;37.310;13.582;2024-03-17T07:23:36;10.18;;;2.08;;
61003;SDS011;46889;37.310;13.582;2024-03-17T07:26:03;8.30;;;2.17;;
61003;SDS011;46889;37.310;13.582;2024-03-17T07:28:30;6.88;;;2.00;;
61003;SDS011;46889;37.310;13.582;2024-03-17T07:30:57;6.85;;;1.70;;
61003;SDS011;46889;37.310;13.582;2024-03-17T07:33:29;6.97;;;1.77;;
61003;SDS011;46889;37.310;13.582;2024-03-17T07:35:55;6.15;;;1.92;;
61003;SDS011;46889;37.310;13.582;2024-03-17T07:38:25;8.20;;;1.98;;
61003;SDS011;46889;37.310;13.582;2024-03-17T07:41:05;5.15;;;1.70;;
61003;SDS011;46889;37.310;13.582;2024-03-17T07:43:34;7.80;;;2.20;;
61003;SDS011;46889;37.310;13.582;2024-03-17T07:46:02;5.90;;;1.85;;
61003;SDS011;46889;37.310;13.582;2024-03-17T07:48:29;7.90;;;2.20;;
61003;SDS011;46889;37.310;13.582;2024-03-17T07:50:59;4.63;;;1.80;;
61003;SDS011;46889;37.310;13.582;2024-03-17T07:53:32;6.82;;;2.13;;
61003;SDS011;46889;37.310;13.582;2024-03-17T07:55:59;7.53;;;2.30;;
61003;SDS011;46889;37.310;13.582;2024-03-17T07:58:30;7.93;;;2.33;;
61003;SDS011;46889;37.310;13.582;2024-03-17T08:01:08;7.43;;;2.30;;
61003;SDS011;46889;37.310;13.582;2024-03-17T08:03:37;8.77;;;2.35;;
61003;SDS011;46889;37.310;13.582;2024-03-17T08:06:18;9.82;;;2.50;;
61003;SDS011;46889;37.310;13.582;2024-03-17T08:08:46;7.55;;;2.35;;
61003;SDS011;46889;37.310;13.582;2024-03-17T08:11:12;7.50;;;2.00;;
61003;SDS011;46889;37.310;13.582;2024-03-17T08:13:38;10.57;;;2.38;;
61003;SDS011;46889;37.310;13.582;2024-03-17T08:16:05;5.18;;;1.73;;
61003;SDS011;46889;37.310;13.582;2024-03-17T08:18:35;8.63;;;2.40;;
61003;SDS011;46889;37.310;13.582;2024-03-17T08:21:02;8.18;;;2.28;;
61003;SDS011;46889;37.310;13.582;2024-03-17T08:23:31;6.43;;;2.05;;
61003;SDS011;46889;37.310;13.582;2024-03-17T08:26:01;6.07;;;2.45;;
61003;SDS011;46889;37.310;13.582;2024-03-17T08:28:27;13.73;;;2.88;;
61003;SDS011;46889;37.310;13.582;2024-03-17T08:30:55;7.55;;;2.83;;
61003;SDS011;46889;37.310;13.582;2024-03-17T08:33:22;6.50;;;2.60;;
61003;SDS011;46889;37.310;13.582;2024-03-17T08:35:56;8.93;;;2.97;;
61003;SDS011;46889;37.310;13.582;2024-03-17T08:38:27;6.05;;;2.67;;
61003;SDS011;46889;37.310;13.582;2024-03-17T08:40:54;6.80;;;2.85;;
61003;SDS011;46889;37.310;13.582;2024-03-17T08:43:23;10.10;;;2.80;;
61003;SDS011;46889;37.310;13.582;2024-03-17T08:46:02;10.93;;;2.88;;
61003;SDS011;46889;37.310;13.582;2024-03-17T08:48:38;8.90;;;2.50;;
61003;SDS011;46889;37.310;13.582;2024-03-17T08:51:06;8.20;;;2.70;;
61003;SDS011;46889;37.310;13.582;2024-03-17T08:53:33;8.57;;;2.72;;
61003;SDS011;46889;37.310;13.582;2024-03-17T08:58:26;6.25;;;1.80;;
61003;SDS011;46889;37.310;13.582;2024-03-17T09:00:52;8.55;;;2.20;;
61003;SDS011;46889;37.310;13.582;2024-03-17T09:03:18;8.30;;;2.00;;
61003;SDS011;46889;37.310;13.582;2024-03-17T09:08:22;10.18;;;2.42;;
61003;SDS011;46889;37.310;13.582;2024-03-17T09:10:51;8.68;;;2.78;;
61003;SDS011;46889;37.310;13.582;2024-03-17T09:13:19;9.70;;;2.22;;
61003;SDS011;46889;37.310;13.582;2024-03-17T09:15:51;6.53;;;2.33;;
61003;SDS011;46889;37.310;13.582;2024-03-17T09:18:19;7.68;;;2.58;;
61003;SDS011;46889;37.310;13.582;2024-03-17T09:20:45;5.93;;;2.35;;
61003;SDS011;46889;37.310;13.582;2024-03-17T09:23:12;5.95;;;2.22;;
61003;SDS011;46889;37.310;13.582;2024-03-17T09:25:39;9.07;;;2.10;;
61003;SDS011;46889;37.310;13.582;2024-03-17T09:28:05;5.07;;;1.88;;
61003;SDS011;46889;37.310;13.582;2024-03-17T09:30:32;8.18;;;2.22;;
61003;SDS011;46889;37.310;13.582;2024-03-17T09:32:59;7.53;;;2.90;;
61003;SDS011;46889;37.310;13.582;2024-03-17T09:35:25;15.57;;;2.90;;
61003;SDS011;46889;37.310;13.582;2024-03-17T09:37:51;5.55;;;1.95;;
61003;SDS011;46889;37.310;13.582;2024-03-17T09:40:17;7.82;;;2.20;;
61003;SDS011;46889;37.310;13.582;2024-03-17T09:42:43;5.55;;;2.17;;
61003;SDS011;46889;37.310;13.582;2024-03-17T09:45:10;9.10;;;2.60;;
61003;SDS011;46889;37.310;13.582;2024-03-17T09:47:37;8.00;;;1.80;;
61003;SDS011;46889;37.310;13.582;2024-03-17T09:50:07;7.57;;;1.98;;
61003;SDS011;46889;37.310;13.582;2024-03-17T09:52:44;7.10;;;2.20;;
61003;SDS011;46889;37.310;13.582;2024-03-17T09:55:17;17.05;;;2.63;;
61003;SDS011;46889;37.310;13.582;2024-03-17T09:57:43;4.03;;;1.65;;
61003;SDS011;46889;37.310;13.582;2024-03-17T10:00:11;6.60;;;1.85;;
61003;SDS011;46889;37.310;13.582;2024-03-17T10:02:43;5.47;;;2.08;;
61003;SDS011;46889;37.310;13.582;2024-03-17T10:05:23;4.20;;;1.70;;
61003;SDS011;46889;37.310;13.582;2024-03-17T10:07:51;5.43;;;1.50;;
61003;SDS011;46889;37.310;13.582;2024-03-17T10:10:22;15.95;;;1.85;;
61003;SDS011;46889;37.310;13.582;2024-03-17T10:12:51;5.70;;;2.08;;
61003;SDS011;46889;37.310;13.582;2024-03-17T10:15:19;11.57;;;2.33;;
61003;SDS011;46889;37.310;13.582;2024-03-17T10:17:46;21.30;;;5.15;;
61003;SDS011;46889;37.310;13.582;2024-03-17T10:20:17;5.38;;;1.92;;
61003;SDS011;46889;37.310;13.582;2024-03-17T10:25:27;8.18;;;2.60;;
61003;SDS011;46889;37.310;13.582;2024-03-17T10:27:54;5.18;;;1.70;;
61003;SDS011;46889;37.310;13.582;2024-03-17T10:30:22;4.32;;;1.60;;
61003;SDS011;46889;37.310;13.582;2024-03-17T10:32:56;6.85;;;1.70;;
61003;SDS011;46889;37.310;13.582;2024-03-17T10:35:31;11.00;;;1.85;;
61003;SDS011;46889;37.310;13.582;2024-03-17T10:38:02;6.30;;;1.92;;
61003;SDS011;46889;37.310;13.582;2024-03-17T10:40:31;4.35;;;1.33;;
61003;SDS011;46889;37.310;13.582;2024-03-17T10:42:59;4.28;;;1.50;;
61003;SDS011;46889;37.310;13.582;2024-03-17T10:45:26;7.03;;;1.73;;
61003;SDS011;46889;37.310;13.582;2024-03-17T10:47:59;3.40;;;1.70;;
61003;SDS011;46889;37.310;13.582;2024-03-17T10:50:34;4.90;;;1.65;;
61003;SDS011;46889;37.310;13.582;2024-03-17T10:53:03;8.38;;;2.25;;
61003;SDS011;46889;37.310;13.582;2024-03-17T10:55:42;5.30;;;2.20;;
61003;SDS011;46889;37.310;13.582;2024-03-17T11:01:07;6.70;;;2.30;;
61003;SDS011;46889;37.310;13.582;2024-03-17T11:03:38;4.30;;;2.00;;
61003;SDS011;46889;37.310;13.582;2024-03-17T11:06:05;5.63;;;2.20;;
61003;SDS011;46889;37.310;13.582;2024-03-17T11:08:33;5.97;;;1.65;;
61003;SDS011;46889;37.310;13.582;2024-03-17T11:11:01;6.38;;;2.28;;
61003;SDS011;46889;37.310;13.582;2024-03-17T11:13:29;5.45;;;1.77;;
61003;SDS011;46889;37.310;13.582;2024-03-17T11:15:58;5.28;;;1.60;;
61003;SDS011;46889;37.310;13.582;2024-03-17T11:18:44;6.50;;;1.90;;
61003;SDS011;46889;37.310;13.582;2024-03-17T11:21:19;4.90;;;2.00;;
61003;SDS011;46889;37.310;13.582;2024-03-17T11:23:56;7.35;;;2.20;;
61003;SDS011;46889;37.310;13.582;2024-03-17T11:26:33;4.07;;;1.70;;
61003;SDS011;46889;37.310;13.582;2024-03-17T11:29:03;5.85;;;1.80;;
61003;SDS011;46889;37.310;13.582;2024-03-17T11:31:43;6.10;;;2.30;;
61003;SDS011;46889;37.310;13.582;2024-03-17T11:34:31;9.38;;;2.45;;
61003;SDS011;46889;37.310;13.582;2024-03-17T11:37:02;3.90;;;1.80;;
61003;SDS011;46889;37.310;13.582;2024-03-17T11:39:53;12.55;;;1.90;;
61003;SDS011;46889;37.310;13.582;2024-03-17T11:42:24;6.07;;;1.90;;
61003;SDS011;46889;37.310;13.582;2024-03-17T11:44:58;7.38;;;3.05;;
61003;SDS011;46889;37.310;13.582;2024-03-17T11:47:36;4.22;;;1.88;;
61003;SDS011;46889;37.310;13.582;2024-03-17T11:50:07;4.13;;;1.70;;
61003;SDS011;46889;37.310;13.582;2024-03-17T11:52:38;5.07;;;1.90;;
61003;SDS011;46889;37.310;13.582;2024-03-17T11:55:16;4.80;;;1.55;;
61003;SDS011;46889;37.310;13.582;2024-03-17T11:57:46;3.40;;;1.40;;
61003;SDS011;46889;37.310;13.582;2024-03-17T12:00:19;8.02;;;1.30;;
61003;SDS011;46889;37.310;13.582;2024-03-17T12:02:48;4.40;;;1.67;;
61003;SDS011;46889;37.310;13.582;2024-03-17T12:05:15;3.63;;;1.20;;
61003;SDS011;46889;37.310;13.582;2024-03-17T12:07:44;5.03;;;1.55;;
61003;SDS011;46889;37.310;13.582;2024-03-17T12:10:12;3.38;;;1.27;;
61003;SDS011;46889;37.310;13.582;2024-03-17T12:12:39;4.38;;;1.60;;
61003;SDS011;46889;37.310;13.582;2024-03-17T12:15:18;5.22;;;1.52;;
61003;SDS011;46889;37.310;13.582;2024-03-17T12:17:45;4.35;;;1.58;;
61003;SDS011;46889;37.310;13.582;2024-03-17T12:20:18;4.40;;;1.63;;
61003;SDS011;46889;37.310;13.582;2024-03-17T12:22:45;5.63;;;1.40;;
61003;SDS011;46889;37.310;13.582;2024-03-17T12:25:16;4.38;;;1.40;;
61003;SDS011;46889;37.310;13.582;2024-03-17T12:27:44;3.30;;;1.25;;
61003;SDS011;46889;37.310;13.582;2024-03-17T12:30:15;5.78;;;1.33;;
61003;SDS011;46889;37.310;13.582;2024-03-17T12:32:42;3.22;;;1.48;;
61003;SDS011;46889;37.310;13.582;2024-03-17T12:35:13;8.32;;;1.58;;
61003;SDS011;46889;37.310;13.582;2024-03-17T12:37:43;3.33;;;1.33;;
61003;SDS011;46889;37.310;13.582;2024-03-17T12:40:21;5.05;;;1.55;;
61003;SDS011;46889;37.310;13.582;2024-03-17T12:42:49;4.03;;;1.60;;
61003;SDS011;46889;37.310;13.582;2024-03-17T12:45:19;3.65;;;1.20;;
61003;SDS011;46889;37.310;13.582;2024-03-17T12:47:48;13.80;;;2.05;;
61003;SDS011;46889;37.310;13.582;2024-03-17T12:50:16;5.20;;;1.60;;
61003;SDS011;46889;37.310;13.582;2024-03-17T12:52:51;4.68;;;1.70;;
61003;SDS011;46889;37.310;13.582;2024-03-17T12:55:21;5.53;;;1.80;;
61003;SDS011;46889;37.310;13.582;2024-03-17T12:58:07;4.30;;;1.40;;
61003;SDS011;46889;37.310;13.582;2024-03-17T13:01:05;4.38;;;1.58;;
61003;SDS011;46889;37.310;13.582;2024-03-17T13:03:32;4.78;;;1.50;;
61003;SDS011;46889;37.310;13.582;2024-03-17T13:06:00;3.42;;;1.23;;
61003;SDS011;46889;37.310;13.582;2024-03-17T13:08:33;4.85;;;1.50;;
61003;SDS011;46889;37.310;13.582;2024-03-17T13:13:29;3.42;;;1.30;;
61003;SDS011;46889;37.310;13.582;2024-03-17T13:15:55;2.45;;;1.20;;
61003;SDS011;46889;37.310;13.582;2024-03-17T13:18:22;7.03;;;1.90;;
61003;SDS011;46889;37.310;13.582;2024-03-17T13:20:48;4.75;;;1.52;;
61003;SDS011;46889;37.310;13.582;2024-03-17T13:23:23;4.43;;;1.90;;
61003;SDS011;46889;37.310;13.582;2024-03-17T13:25:50;3.85;;;1.60;;
61003;SDS011;46889;37.310;13.582;2024-03-17T13:28:17;3.40;;;1.20;;
61003;SDS011;46889;37.310;13.582;2024-03-17T13:30:43;6.28;;;1.40;;
61003;SDS011;46889;37.310;13.582;2024-03-17T13:33:09;4.68;;;1.35;;
61003;SDS011;46889;37.310;13.582;2024-03-17T13:35:39;6.78;;;1.55;;
61003;SDS011;46889;37.310;13.582;2024-03-17T13:38:06;3.92;;;1.48;;
61003;SDS011;46889;37.310;13.582;2024-03-17T13:40:34;3.65;;;1.30;;
61003;SDS011;46889;37.310;13.582;2024-03-17T13:43:01;4.85;;;1.77;;
61003;SDS011;46889;37.310;13.582;2024-03-17T13:45:28;3.53;;;1.30;;
61003;SDS011;46889;37.310;13.582;2024-03-17T13:48:00;4.22;;;1.58;;
61003;SDS011;46889;37.310;13.582;2024-03-17T13:50:31;6.45;;;1.20;;
61003;SDS011;46889;37.310;13.582;2024-03-17T13:52:59;4.05;;;1.42;;
61003;SDS011;46889;37.310;13.582;2024-03-17T13:55:28;5.20;;;1.90;;
61003;SDS011;46889;37.310;13.582;2024-03-17T13:57:55;6.85;;;1.50;;
61003;SDS011;46889;37.310;13.582;2024-03-17T14:00:23;4.88;;;1.85;;
61003;SDS011;46889;37.310;13.582;2024-03-17T14:02:51;3.97;;;1.30;;
61003;SDS011;46889;37.310;13.582;2024-03-17T14:05:19;4.65;;;1.48;;
61003;SDS011;46889;37.310;13.582;2024-03-17T14:07:46;4.90;;;2.03;;
61003;SDS011;46889;37.310;13.582;2024-03-17T14:10:14;10.23;;;5.75;;
61003;SDS011;46889;37.310;13.582;2024-03-17T14:12:48;6.95;;;1.83;;
61003;SDS011;46889;37.310;13.582;2024-03-17T14:15:14;6.72;;;1.60;;
61003;SDS011;46889;37.310;13.582;2024-03-17T14:17:45;3.47;;;1.77;;
61003;SDS011;46889;37.310;13.582;2024-03-17T14:20:14;7.85;;;2.22;;
61003;SDS011;46889;37.310;13.582;2024-03-17T14:22:43;7.15;;;1.80;;
61003;SDS011;46889;37.310;13.582;2024-03-17T14:25:15;7.18;;;1.55;;
61003;SDS011;46889;37.310;13.582;2024-03-17T14:27:43;3.75;;;1.45;;
61003;SDS011;46889;37.310;13.582;2024-03-17T14:30:15;3.75;;;1.27;;
61003;SDS011;46889;37.310;13.582;2024-03-17T14:32:43;3.15;;;1.45;;
61003;SDS011;46889;37.310;13.582;2024-03-17T14:35:16;5.63;;;1.42;;
61003;SDS011;46889;37.310;13.582;2024-03-17T14:37:47;4.70;;;1.30;;
61003;SDS011;46889;37.310;13.582;2024-03-17T14:40:17;4.68;;;1.48;;
61003;SDS011;46889;37.310;13.582;2024-03-17T14:42:53;5.30;;;1.30;;
61003;SDS011;46889;37.310;13.582;2024-03-17T14:45:22;4.80;;;1.40;;
61003;SDS011;46889;37.310;13.582;2024-03-17T14:47:49;4.25;;;1.55;;
61003;SDS011;46889;37.310;13.582;2024-03-17T14:50:16;2.72;;;1.30;;
61003;SDS011;46889;37.310;13.582;2024-03-17T14:52:43;5.05;;;1.52;;
61003;SDS011;46889;37.310;13.582;2024-03-17T14:55:10;9.15;;;2.22;;
61003;SDS011;46889;37.310;13.582;2024-03-17T14:57:37;8.57;;;2.65;;
61003;SDS011;46889;37.310;13.582;2024-03-17T15:00:06;3.55;;;1.70;;
61003;SDS011;46889;37.310;13.582;2024-03-17T15:02:48;4.32;;;1.88;;
61003;SDS011;46889;37.310;13.582;2024-03-17T15:05:19;5.55;;;2.03;;
61003;SDS011;46889;37.310;13.582;2024-03-17T15:07:46;4.20;;;0.90;;
61003;SDS011;46889;37.310;13.582;2024-03-17T15:10:13;3.38;;;1.35;;